Time;durP1;ratioP1;P1;durP2;ratioP2;P2;SDS_P1;SDS_P2;PMS_P1;PMS_P2;Temp;Humidity;BMP_temperature;BMP_pressure;BME280_temperature;BME280_humidity;BME280_pressure;Samples;Min_cycle;Max_cycle;Signal;HPM_P1;HPM_P2
2023/09/17 00:00:58;;;;;;;0.00;0.00;;;16.40;80.90;;;;;;5028392;28;20095;-69
2023/09/17 00:03:24;;;;;;;0.00;0.00;;;16.30;81.00;;;;;;5045240;28;20514;-69
2023/09/17 00:05:49;;;;;;;0.00;0.00;;;16.30;80.70;;;;;;5031812;28;20132;-69
2023/09/17 00:08:15;;;;;;;0.03;0.03;;;16.30;80.70;;;;;;5030082;28;20363;-69
2023/09/17 00:10:43;;;;;;;0.00;0.00;;;16.30;80.70;;;;;;5046491;28;20076;-69
2023/09/17 00:13:10;;;;;;;0.20;0.20;;;16.30;80.70;;;;;;5034532;28;20042;-69
2023/09/17 00:15:37;;;;;;;0.20;0.20;;;16.30;81.10;;;;;;5050834;28;20041;-69
2023/09/17 00:18:02;;;;;;;0.00;0.00;;;16.20;80.80;;;;;;5016773;28;20075;-69
2023/09/17 00:20:28;;;;;;;0.15;0.15;;;16.30;81.20;;;;;;5049118;28;20048;-69
2023/09/17 00:22:53;;;;;;;0.00;0.00;;;16.20;81.00;;;;;;5035667;28;20734;-68
2023/09/17 00:25:19;;;;;;;0.32;0.32;;;16.20;81.20;;;;;;5038354;28;20045;-68
2023/09/17 00:27:45;;;;;;;0.00;0.00;;;16.20;80.90;;;;;;5033979;28;20077;-69
2023/09/17 00:30:11;;;;;;;0.10;0.10;;;16.20;81.20;;;;;;5034306;28;20504;-69
2023/09/17 00:32:37;;;;;;;0.00;0.00;;;16.10;81.20;;;;;;5050376;28;20037;-69
2023/09/17 00:35:03;;;;;;;0.00;0.00;;;16.10;80.90;;;;;;5025922;28;20045;-68
2023/09/17 00:37:29;;;;;;;0.00;0.00;;;16.20;80.90;;;;;;5050356;28;20497;-67
2023/09/17 00:39:55;;;;;;;0.10;0.10;;;16.10;81.00;;;;;;5033918;28;20042;-67
2023/09/17 00:42:20;;;;;;;0.00;0.00;;;16.20;81.60;;;;;;5035168;28;20478;-68
2023/09/17 00:44:46;;;;;;;0.10;0.10;;;16.10;81.60;;;;;;5032988;28;20514;-67
2023/09/17 00:47:12;;;;;;;0.85;0.85;;;16.10;81.50;;;;;;5050719;28;20106;-67
2023/09/17 00:49:38;;;;;;;0.00;0.00;;;16.10;81.70;;;;;;5016075;28;20502;-67
2023/09/17 00:52:13;;;;;;;0.00;0.00;;;16.10;81.80;;;;;;5050636;28;20071;-68
2023/09/17 00:54:39;;;;;;;0.00;0.00;;;16.10;82.00;;;;;;5049106;28;20576;-67
2023/09/17 00:57:04;;;;;;;0.03;0.03;;;16.10;82.00;;;;;;5049488;28;20080;-67
2023/09/17 00:59:30;;;;;;;0.00;0.00;;;16.10;82.20;;;;;;5033662;28;20371;-67
2023/09/17 01:01:56;;;;;;;0.00;0.00;;;16.10;82.60;;;;;;5033935;28;20044;-67
2023/09/17 01:04:22;;;;;;;0.00;0.00;;;16.00;82.40;;;;;;5033095;28;20037;-67
2023/09/17 01:06:52;;;;;;;0.00;0.00;;;16.10;82.70;;;;;;5050176;28;20077;-67
2023/09/17 01:09:18;;;;;;;0.00;0.00;;;16.00;82.50;;;;;;5041122;28;20061;-67
2023/09/17 01:11:44;;;;;;;0.00;0.00;;;16.10;82.70;;;;;;5013566;28;20407;-67
2023/09/17 01:14:12;;;;;;;0.00;0.00;;;16.10;82.60;;;;;;5030963;28;20052;-68
2023/09/17 01:16:41;;;;;;;0.10;0.10;;;16.00;83.00;;;;;;5036839;28;20049;-66
2023/09/17 01:19:15;;;;;;;0.00;0.00;;;16.10;83.10;;;;;;5013810;28;20379;-67
2023/09/17 01:22:09;;;;;;;0.00;0.00;;;16.10;83.00;;;;;;5013456;28;20045;-67
2023/09/17 01:24:43;;;;;;;0.00;0.00;;;16.10;82.90;;;;;;5034202;28;20044;-68
2023/09/17 01:27:12;;;;;;;0.63;0.63;;;16.10;83.10;;;;;;5049777;28;20099;-68
2023/09/17 01:29:41;;;;;;;0.00;0.00;;;16.10;83.30;;;;;;5049766;28;20508;-67
2023/09/17 01:32:07;;;;;;;0.05;0.05;;;16.10;83.40;;;;;;5002566;28;20041;-67
2023/09/17 01:34:37;;;;;;;0.20;0.20;;;16.20;83.20;;;;;;5046536;28;20038;-67
2023/09/17 01:37:15;;;;;;;1.45;0.52;;;16.20;83.10;;;;;;5028424;28;20037;-69
2023/09/17 01:39:53;;;;;;;0.00;0.00;;;16.10;83.40;;;;;;5049483;28;20107;-70
2023/09/17 01:42:19;;;;;;;0.00;0.00;;;16.20;83.60;;;;;;5031938;28;20099;-68
2023/09/17 01:44:47;;;;;;;0.00;0.00;;;16.20;84.30;;;;;;5032242;28;20107;-68
2023/09/17 01:47:14;;;;;;;0.00;0.00;;;16.20;84.10;;;;;;5049135;28;20295;-68
2023/09/17 01:49:40;;;;;;;0.10;0.10;;;16.20;84.40;;;;;;5048846;28;20052;-68
2023/09/17 01:52:06;;;;;;;0.00;0.00;;;16.30;84.50;;;;;;5032202;28;20045;-68
2023/09/17 01:54:33;;;;;;;0.25;0.25;;;16.30;84.90;;;;;;5048319;28;20556;-68
2023/09/17 01:56:58;;;;;;;0.00;0.00;;;16.30;85.30;;;;;;5032363;28;20131;-68
2023/09/17 01:59:25;;;;;;;0.00;0.00;;;16.30;85.60;;;;;;5032666;28;20088;-67
2023/09/17 02:01:50;;;;;;;0.00;0.00;;;16.30;85.90;;;;;;5031236;28;20060;-67
2023/09/17 02:04:16;;;;;;;0.20;0.20;;;16.30;85.90;;;;;;5032774;28;20041;-68
2023/09/17 02:06:41;;;;;;;0.00;0.00;;;16.30;85.90;;;;;;5032129;28;20392;-67
2023/09/17 02:09:08;;;;;;;0.00;0.00;;;16.30;86.40;;;;;;5033821;28;20421;-67
2023/09/17 02:11:35;;;;;;;0.10;0.10;;;16.40;86.70;;;;;;5030135;28;20495;-68
2023/09/17 02:14:00;;;;;;;0.00;0.00;;;16.40;86.20;;;;;;5048655;28;20042;-67
2023/09/17 02:16:27;;;;;;;0.00;0.00;;;16.40;86.20;;;;;;5032531;28;20371;-68
2023/09/17 02:18:52;;;;;;;0.20;0.20;;;16.40;86.00;;;;;;5048750;28;20128;-69
2023/09/17 02:21:18;;;;;;;0.00;0.00;;;16.40;86.10;;;;;;5022100;28;20530;-68
2023/09/17 02:23:44;;;;;;;0.00;0.00;;;16.40;86.00;;;;;;5012174;28;20034;-67
2023/09/17 02:26:10;;;;;;;0.00;0.00;;;16.40;86.50;;;;;;5021562;28;20041;-67
2023/09/17 02:28:36;;;;;;;0.00;0.00;;;16.50;86.00;;;;;;5032254;28;20367;-67
2023/09/17 02:31:02;;;;;;;0.00;0.00;;;16.50;86.00;;;;;;5049000;28;20045;-68
2023/09/17 02:33:31;;;;;;;0.00;0.00;;;16.50;86.10;;;;;;5032166;28;20045;-68
2023/09/17 02:35:57;;;;;;;0.00;0.00;;;16.50;86.50;;;;;;5030092;28;20096;-69
2023/09/17 02:38:23;;;;;;;0.10;0.10;;;16.50;86.30;;;;;;5028608;28;20072;-68
2023/09/17 02:40:48;;;;;;;0.10;0.10;;;16.50;85.90;;;;;;5032099;28;20046;-67
2023/09/17 02:43:14;;;;;;;3.20;0.77;;;16.50;86.00;;;;;;5032750;28;20130;-68
2023/09/17 02:45:40;;;;;;;0.10;0.10;;;16.60;86.00;;;;;;5048241;28;20494;-68
2023/09/17 02:48:06;;;;;;;0.00;0.00;;;16.60;86.00;;;;;;5030149;28;20135;-68
2023/09/17 02:50:31;;;;;;;0.00;0.00;;;16.60;85.90;;;;;;5032672;28;20041;-68
2023/09/17 02:52:57;;;;;;;0.00;0.00;;;16.60;86.00;;;;;;5032794;28;20049;-68
2023/09/17 02:55:23;;;;;;;0.00;0.00;;;16.70;86.10;;;;;;5029771;28;20104;-68
2023/09/17 02:57:49;;;;;;;0.00;0.00;;;16.70;86.20;;;;;;5046211;28;20041;-68
2023/09/17 03:00:17;;;;;;;0.00;0.00;;;16.70;86.70;;;;;;5047910;28;20067;-68
2023/09/17 03:02:47;;;;;;;0.00;0.00;;;16.70;86.80;;;;;;5047790;28;20041;-68
2023/09/17 03:05:17;;;;;;;0.00;0.00;;;16.70;86.60;;;;;;5048107;28;20037;-68
2023/09/17 03:07:43;;;;;;;0.22;0.08;;;16.70;86.40;;;;;;5036718;28;20041;-68
2023/09/17 03:10:11;;;;;;;0.00;0.00;;;16.70;86.80;;;;;;5047942;28;20544;-68
2023/09/17 03:12:38;;;;;;;0.00;0.00;;;16.70;86.60;;;;;;5047846;28;20372;-68
2023/09/17 03:15:05;;;;;;;0.45;0.45;;;16.70;86.40;;;;;;5047572;28;20044;-68
2023/09/17 03:17:31;;;;;;;0.00;0.00;;;16.70;86.80;;;;;;5046880;28;20402;-68
2023/09/17 03:19:57;;;;;;;0.10;0.10;;;16.80;86.90;;;;;;5046874;28;20045;-67
2023/09/17 03:22:23;;;;;;;3.22;1.17;;;16.70;86.80;;;;;;5047540;28;20486;-68
2023/09/17 03:24:48;;;;;;;0.00;0.00;;;16.80;86.80;;;;;;5014976;28;20048;-68
2023/09/17 03:27:14;;;;;;;0.05;0.05;;;16.80;86.80;;;;;;5038273;28;20121;-68
2023/09/17 03:29:40;;;;;;;0.00;0.00;;;16.80;86.80;;;;;;5025662;28;20049;-68
2023/09/17 03:32:05;;;;;;;0.00;0.00;;;16.80;86.70;;;;;;5047739;28;20049;-68
2023/09/17 03:34:32;;;;;;;0.00;0.00;;;16.80;86.70;;;;;;5047469;28;20100;-68
2023/09/17 03:36:58;;;;;;;0.00;0.00;;;16.80;86.30;;;;;;5040569;28;20073;-70
2023/09/17 03:39:24;;;;;;;0.00;0.00;;;16.70;86.50;;;;;;5019490;28;20080;-68
2023/09/17 03:41:49;;;;;;;0.00;0.00;;;16.80;86.50;;;;;;5012254;28;20042;-68
2023/09/17 03:44:15;;;;;;;0.43;0.43;;;16.80;86.60;;;;;;5011974;28;20034;-68
2023/09/17 03:46:41;;;;;;;0.20;0.20;;;16.80;86.90;;;;;;5014167;28;20049;-68
2023/09/17 03:49:06;;;;;;;0.38;0.38;;;16.90;86.80;;;;;;5045586;28;20064;-68
2023/09/17 03:51:32;;;;;;;0.00;0.00;;;16.90;86.80;;;;;;5031870;28;20398;-68
2023/09/17 03:53:59;;;;;;;0.00;0.00;;;16.90;87.20;;;;;;5046590;28;20053;-68
2023/09/17 03:56:26;;;;;;;0.00;0.00;;;16.90;86.90;;;;;;5044701;28;20141;-68
2023/09/17 03:58:53;;;;;;;0.00;0.00;;;16.90;86.80;;;;;;5022744;28;20188;-69
2023/09/17 04:01:19;;;;;;;0.05;0.05;;;16.90;87.00;;;;;;5036151;28;20124;-67
2023/09/17 04:03:45;;;;;;;0.00;0.00;;;17.00;87.10;;;;;;5010751;28;20077;-68
2023/09/17 04:06:10;;;;;;;0.00;0.00;;;17.00;87.00;;;;;;5010229;28;20042;-69
2023/09/17 04:08:36;;;;;;;0.00;0.00;;;17.00;87.00;;;;;;5035167;28;20033;-68
2023/09/17 04:11:02;;;;;;;0.00;0.00;;;17.00;87.40;;;;;;5031770;28;20033;-68
2023/09/17 04:13:29;;;;;;;0.00;0.00;;;17.10;87.40;;;;;;5029998;28;20479;-68
2023/09/17 04:15:55;;;;;;;0.00;0.00;;;17.00;87.50;;;;;;5031584;28;20051;-68
2023/09/17 04:18:21;;;;;;;0.15;0.15;;;17.10;87.50;;;;;;5012476;28;20053;-68
2023/09/17 04:20:47;;;;;;;0.00;0.00;;;17.10;87.40;;;;;;5047208;28;20048;-68
2023/09/17 04:23:13;;;;;;;0.00;0.00;;;17.10;87.10;;;;;;5044072;28;20088;-68
2023/09/17 04:25:39;;;;;;;0.00;0.00;;;17.10;87.10;;;;;;5031098;28;20455;-67
2023/09/17 04:28:05;;;;;;;0.00;0.00;;;17.10;87.60;;;;;;5028464;28;20080;-68
2023/09/17 04:30:30;;;;;;;0.00;0.00;;;17.10;87.60;;;;;;5031049;28;20041;-68
2023/09/17 04:32:56;;;;;;;0.00;0.00;;;17.10;87.30;;;;;;5029977;28;20397;-67
2023/09/17 04:35:22;;;;;;;0.00;0.00;;;17.10;87.10;;;;;;5026800;28;20049;-69
2023/09/17 04:37:49;;;;;;;1.10;0.63;;;17.10;87.00;;;;;;5040311;28;20080;-68
2023/09/17 04:40:15;;;;;;;0.00;0.00;;;17.10;87.30;;;;;;5045675;28;20706;-68
2023/09/17 04:42:46;;;;;;;0.00;0.00;;;17.10;87.30;;;;;;5030187;28;20527;-68
2023/09/17 04:45:12;;;;;;;0.00;0.00;;;17.10;87.30;;;;;;5029686;28;20132;-68
2023/09/17 04:47:39;;;;;;;0.00;0.00;;;17.10;87.40;;;;;;5030038;28;20037;-68
2023/09/17 04:50:12;;;;;;;0.00;0.00;;;17.10;87.20;;;;;;5043943;28;20533;-68
2023/09/17 04:52:38;;;;;;;0.00;0.00;;;17.10;87.20;;;;;;5030175;28;20061;-67
2023/09/17 04:55:05;;;;;;;0.00;0.00;;;17.10;87.30;;;;;;5025656;28;20041;-67
2023/09/17 04:57:30;;;;;;;0.00;0.00;;;17.10;87.20;;;;;;5041202;28;20052;-67
2023/09/17 04:59:56;;;;;;;0.00;0.00;;;17.10;87.20;;;;;;5035043;28;20033;-69
2023/09/17 05:02:22;;;;;;;0.00;0.00;;;17.10;87.20;;;;;;5034383;28;20033;-69
2023/09/17 05:04:47;;;;;;;0.00;0.00;;;17.10;86.90;;;;;;5035325;28;20037;-68
2023/09/17 05:07:14;;;;;;;0.00;0.00;;;17.20;86.70;;;;;;5032530;28;20100;-69
2023/09/17 05:10:06;;;;;;;0.00;0.00;;;17.20;87.20;;;;;;5020369;28;20544;-68
2023/09/17 05:12:32;;;;;;;0.00;0.00;;;17.10;87.00;;;;;;5024902;28;20049;-68
2023/09/17 05:14:58;;;;;;;0.00;0.00;;;17.10;86.90;;;;;;5028650;28;20056;-67
2023/09/17 05:17:23;;;;;;;0.00;0.00;;;17.10;87.00;;;;;;5045259;28;20037;-68
2023/09/17 05:19:49;;;;;;;0.00;0.00;;;17.10;87.10;;;;;;5028246;28;20496;-69
2023/09/17 05:22:15;;;;;;;0.00;0.00;;;17.10;87.10;;;;;;5029753;28;20054;-67
2023/09/17 05:24:40;;;;;;;0.00;0.00;;;17.10;86.80;;;;;;5029245;28;20442;-66
2023/09/17 05:27:06;;;;;;;0.03;0.03;;;17.00;86.90;;;;;;5045231;28;20046;-66
2023/09/17 05:29:32;;;;;;;0.00;0.00;;;17.10;87.20;;;;;;5031421;28;20041;-65
2023/09/17 05:31:57;;;;;;;0.10;0.10;;;17.00;87.10;;;;;;5030305;28;20522;-66
2023/09/17 05:34:23;;;;;;;0.20;0.20;;;17.10;86.90;;;;;;5030353;28;20040;-66
2023/09/17 05:36:49;;;;;;;0.00;0.00;;;17.10;86.80;;;;;;5029014;28;20564;-67
2023/09/17 05:39:14;;;;;;;0.10;0.10;;;17.00;86.70;;;;;;5031439;28;20609;-66
2023/09/17 05:41:40;;;;;;;0.00;0.00;;;17.00;86.40;;;;;;5030377;28;20049;-66
2023/09/17 05:44:06;;;;;;;0.80;0.75;;;17.10;86.70;;;;;;5025139;28;20608;-66
2023/09/17 05:46:32;;;;;;;0.80;0.80;;;17.00;86.60;;;;;;5030229;28;20526;-67
2023/09/17 05:48:57;;;;;;;0.10;0.10;;;17.10;86.30;;;;;;5026373;28;20132;-67
2023/09/17 05:51:23;;;;;;;0.20;0.20;;;17.10;86.20;;;;;;5029782;28;20045;-68
2023/09/17 05:53:48;;;;;;;0.00;0.00;;;17.10;86.60;;;;;;5030059;28;20042;-68
2023/09/17 05:56:14;;;;;;;0.00;0.00;;;17.00;86.60;;;;;;5029321;28;20072;-68
2023/09/17 05:58:40;;;;;;;0.00;0.00;;;17.10;86.40;;;;;;5029824;28;20439;-66
2023/09/17 06:01:05;;;;;;;0.20;0.20;;;17.10;86.60;;;;;;5027898;28;20124;-67
2023/09/17 06:03:31;;;;;;;0.10;0.10;;;17.10;86.30;;;;;;5044304;28;20540;-70
2023/09/17 06:05:57;;;;;;;1.30;0.95;;;17.10;86.30;;;;;;5028339;28;20081;-67
2023/09/17 06:08:25;;;;;;;0.00;0.00;;;17.10;86.40;;;;;;5029249;28;20099;-66
2023/09/17 06:10:51;;;;;;;0.03;0.03;;;17.10;86.30;;;;;;5027082;28;20081;-69
2023/09/17 06:13:18;;;;;;;0.50;0.50;;;17.20;86.40;;;;;;5025260;28;20076;-67
2023/09/17 06:15:45;;;;;;;0.00;0.00;;;17.20;86.10;;;;;;5024042;28;20053;-67
2023/09/17 06:18:11;;;;;;;0.15;0.15;;;17.20;86.50;;;;;;5023363;28;20156;-68
2023/09/17 06:20:37;;;;;;;0.05;0.05;;;17.20;86.60;;;;;;5027580;28;20132;-67
2023/09/17 06:23:03;;;;;;;0.00;0.00;;;17.20;86.40;;;;;;5028761;28;20041;-67
2023/09/17 06:25:29;;;;;;;0.00;0.00;;;17.20;86.30;;;;;;5030512;28;20060;-67
2023/09/17 06:27:54;;;;;;;0.03;0.03;;;17.30;86.30;;;;;;5029405;28;20494;-67
2023/09/17 06:30:20;;;;;;;0.08;0.08;;;17.30;86.20;;;;;;5029018;28;20065;-67
2023/09/17 06:32:46;;;;;;;0.20;0.20;;;17.30;86.40;;;;;;5029099;28;20180;-67
2023/09/17 06:35:11;;;;;;;0.20;0.20;;;17.30;86.20;;;;;;5026628;28;21721;-67
2023/09/17 06:37:37;;;;;;;0.00;0.00;;;17.30;86.10;;;;;;5028546;28;20520;-67
2023/09/17 06:40:03;;;;;;;0.20;0.15;;;17.30;86.20;;;;;;5030171;28;20461;-67
2023/09/17 06:42:29;;;;;;;0.00;0.00;;;17.30;86.10;;;;;;5028031;28;20052;-67
2023/09/17 06:44:55;;;;;;;0.10;0.10;;;17.30;86.10;;;;;;5044307;28;20060;-67
2023/09/17 06:47:20;;;;;;;0.00;0.00;;;17.30;86.10;;;;;;5029542;28;20164;-67
2023/09/17 06:49:46;;;;;;;0.00;0.00;;;17.30;86.20;;;;;;5029078;28;20057;-68
2023/09/17 06:52:11;;;;;;;0.00;0.00;;;17.40;86.20;;;;;;5028050;28;20147;-68
2023/09/17 06:54:37;;;;;;;0.00;0.00;;;17.40;86.20;;;;;;5044053;28;20140;-67
2023/09/17 06:57:04;;;;;;;0.00;0.00;;;17.40;86.30;;;;;;5044982;28;20095;-67
2023/09/17 06:59:30;;;;;;;0.00;0.00;;;17.40;86.50;;;;;;5041863;28;20152;-68
2023/09/17 07:01:55;;;;;;;0.00;0.00;;;17.40;86.40;;;;;;5029186;28;20093;-68
2023/09/17 07:04:21;;;;;;;0.00;0.00;;;17.50;86.30;;;;;;5026981;28;20043;-68
2023/09/17 07:06:46;;;;;;;0.00;0.00;;;17.50;86.20;;;;;;5027552;28;20057;-68
2023/09/17 07:09:13;;;;;;;0.63;0.45;;;17.50;86.00;;;;;;5010243;28;20091;-68
2023/09/17 07:11:38;;;;;;;0.65;0.47;;;17.50;85.90;;;;;;5027565;28;20049;-67
2023/09/17 07:14:09;;;;;;;0.00;0.00;;;17.50;86.00;;;;;;5027365;28;20052;-68
2023/09/17 07:16:35;;;;;;;0.00;0.00;;;17.50;86.10;;;;;;5027647;28;20057;-68
2023/09/17 07:19:01;;;;;;;0.03;0.03;;;17.60;86.10;;;;;;5028515;28;20237;-67
2023/09/17 07:21:27;;;;;;;0.00;0.00;;;17.60;86.00;;;;;;5028471;28;20049;-66
2023/09/17 07:23:52;;;;;;;0.00;0.00;;;17.60;85.90;;;;;;5044070;28;20442;-69
2023/09/17 07:26:20;;;;;;;0.10;0.10;;;17.60;86.10;;;;;;5044792;28;20065;-67
2023/09/17 07:28:46;;;;;;;0.00;0.00;;;17.60;86.10;;;;;;5043406;28;20045;-67
2023/09/17 07:31:12;;;;;;;0.00;0.00;;;17.60;86.10;;;;;;5027494;28;20045;-66
2023/09/17 07:33:39;;;;;;;0.00;0.00;;;17.60;86.00;;;;;;5024325;28;20131;-67
2023/09/17 07:36:06;;;;;;;0.00;0.00;;;17.60;86.10;;;;;;5042434;28;20581;-67
2023/09/17 07:38:32;;;;;;;0.00;0.00;;;17.70;86.10;;;;;;5029923;28;20503;-67
2023/09/17 07:40:57;;;;;;;0.00;0.00;;;17.70;86.00;;;;;;5027916;28;20103;-67
2023/09/17 07:43:23;;;;;;;0.08;0.08;;;17.70;86.00;;;;;;5027798;28;20048;-67
2023/09/17 07:45:48;;;;;;;0.05;0.05;;;17.80;86.10;;;;;;5043656;28;20057;-67
2023/09/17 07:48:14;;;;;;;0.00;0.00;;;17.80;86.30;;;;;;5028496;28;20041;-67
2023/09/17 07:50:40;;;;;;;0.00;0.00;;;17.80;86.40;;;;;;5043752;28;20054;-67
2023/09/17 07:53:07;;;;;;;0.00;0.00;;;17.80;86.40;;;;;;5043212;28;20540;-67
2023/09/17 07:55:33;;;;;;;0.10;0.10;;;17.70;86.40;;;;;;5043218;28;20064;-67
2023/09/17 07:57:58;;;;;;;0.08;0.08;;;17.70;86.30;;;;;;5026163;28;20045;-67
2023/09/17 08:00:25;;;;;;;0.00;0.00;;;17.70;86.40;;;;;;5028280;28;20085;-67
2023/09/17 08:02:50;;;;;;;0.00;0.00;;;17.80;86.50;;;;;;5028350;28;20049;-67
2023/09/17 08:05:17;;;;;;;0.00;0.00;;;17.80;86.30;;;;;;5026765;28;20064;-67
2023/09/17 08:07:43;;;;;;;0.00;0.00;;;17.80;86.50;;;;;;5025063;28;20045;-68
2023/09/17 08:10:11;;;;;;;0.00;0.00;;;17.70;86.60;;;;;;5042849;28;20057;-67
2023/09/17 08:12:37;;;;;;;0.00;0.00;;;17.80;86.70;;;;;;5042322;28;20052;-67
2023/09/17 08:15:03;;;;;;;0.00;0.00;;;17.80;86.70;;;;;;5043380;28;20062;-67
2023/09/17 08:17:28;;;;;;;0.00;0.00;;;17.70;86.70;;;;;;5025549;28;20124;-67
2023/09/17 08:19:56;;;;;;;0.00;0.00;;;17.70;86.60;;;;;;5027592;28;20187;-67
2023/09/17 08:22:22;;;;;;;0.00;0.00;;;17.70;86.50;;;;;;5027154;28;20061;-66
2023/09/17 08:24:48;;;;;;;0.00;0.00;;;17.80;86.50;;;;;;5028121;28;20694;-66
2023/09/17 08:27:16;;;;;;;0.00;0.00;;;17.80;86.50;;;;;;5042392;28;20156;-67
2023/09/17 08:29:43;;;;;;;0.00;0.00;;;17.70;86.70;;;;;;5027759;28;20058;-65
2023/09/17 08:32:11;;;;;;;0.00;0.00;;;17.70;86.80;;;;;;5028681;28;20052;-66
2023/09/17 08:34:36;;;;;;;0.00;0.00;;;17.70;86.80;;;;;;5031050;28;20406;-65
2023/09/17 08:37:04;;;;;;;0.15;0.15;;;17.60;87.00;;;;;;5031518;28;20056;-66
2023/09/17 08:39:31;;;;;;;0.10;0.10;;;17.70;86.90;;;;;;5030776;28;20132;-65
2023/09/17 08:41:59;;;;;;;0.55;0.38;;;17.60;86.60;;;;;;5031247;28;20057;-65
2023/09/17 08:44:27;;;;;;;0.10;0.10;;;17.60;87.00;;;;;;5045752;28;20584;-65
2023/09/17 08:46:53;;;;;;;0.10;0.10;;;17.70;86.90;;;;;;5029538;28;20052;-65
2023/09/17 08:49:19;;;;;;;0.00;0.00;;;17.60;86.90;;;;;;5028858;28;20425;-65
2023/09/17 08:51:47;;;;;;;0.00;0.00;;;17.60;87.00;;;;;;5043425;28;20057;-65
2023/09/17 08:54:24;;;;;;;0.00;0.00;;;17.60;86.90;;;;;;5024895;28;20058;-65
2023/09/17 08:56:51;;;;;;;0.00;0.00;;;17.60;87.00;;;;;;5044670;28;20119;-63
2023/09/17 08:59:28;;;;;;;0.00;0.00;;;17.60;87.00;;;;;;5030768;28;20066;-64
2023/09/17 09:01:55;;;;;;;0.03;0.03;;;17.60;87.10;;;;;;5026711;28;20057;-64
2023/09/17 09:04:25;;;;;;;0.00;0.00;;;17.60;87.20;;;;;;5028532;28;20057;-64
2023/09/17 09:06:52;;;;;;;0.00;0.00;;;17.60;87.20;;;;;;5025553;28;20481;-63
2023/09/17 09:09:20;;;;;;;0.00;0.00;;;17.60;87.20;;;;;;5029094;28;20056;-64
2023/09/17 09:11:48;;;;;;;0.00;0.00;;;17.60;87.50;;;;;;5042419;28;20057;-64
2023/09/17 09:14:14;;;;;;;0.00;0.00;;;17.60;87.50;;;;;;5029551;28;20053;-64
2023/09/17 09:16:39;;;;;;;0.00;0.00;;;17.60;87.80;;;;;;5046268;28;20041;-64
2023/09/17 09:19:07;;;;;;;0.00;0.00;;;17.70;87.80;;;;;;5032883;28;20042;-64
2023/09/17 09:21:32;;;;;;;0.05;0.05;;;17.70;87.60;;;;;;5027352;28;20042;-64
2023/09/17 09:23:58;;;;;;;0.00;0.00;;;17.80;87.90;;;;;;5043017;28;20625;-64
2023/09/17 09:26:38;;;;;;;0.00;0.00;;;17.70;87.80;;;;;;5030634;28;20046;-63
2023/09/17 09:29:05;;;;;;;0.00;0.00;;;17.80;87.90;;;;;;5042857;28;20053;-64
2023/09/17 09:31:35;;;;;;;0.00;0.00;;;17.70;87.70;;;;;;5028553;28;20532;-64
2023/09/17 09:34:01;;;;;;;0.00;0.00;;;17.70;88.10;;;;;;5046842;28;20463;-64
2023/09/17 09:36:28;;;;;;;5.57;0.55;;;17.70;88.00;;;;;;5027672;28;20080;-65
2023/09/17 09:38:57;;;;;;;0.17;0.17;;;17.60;88.00;;;;;;5044568;28;20054;-65
2023/09/17 09:41:29;;;;;;;0.10;0.10;;;17.60;88.00;;;;;;5027091;28;20099;-65
2023/09/17 09:43:56;;;;;;;0.00;0.00;;;17.60;88.20;;;;;;5030626;28;20041;-64
2023/09/17 09:46:24;;;;;;;0.10;0.10;;;17.60;87.80;;;;;;5031734;28;20084;-64
2023/09/17 09:48:51;;;;;;;0.00;0.00;;;17.50;87.70;;;;;;5032142;28;20110;-65
2023/09/17 09:51:18;;;;;;;0.10;0.10;;;17.50;87.50;;;;;;5032432;28;20049;-64
2023/09/17 09:53:44;;;;;;;0.00;0.00;;;17.30;87.00;;;;;;5031977;28;20092;-65
2023/09/17 09:56:11;;;;;;;0.00;0.00;;;17.30;86.60;;;;;;5031497;28;20067;-65
2023/09/17 09:58:39;;;;;;;0.00;0.00;;;17.20;86.60;;;;;;5031714;28;20049;-65
2023/09/17 10:01:05;;;;;;;0.00;0.00;;;17.20;86.60;;;;;;5032018;28;20049;-65
2023/09/17 10:03:31;;;;;;;1.27;0.85;;;17.30;86.90;;;;;;5031928;28;20049;-65
2023/09/17 10:06:06;;;;;;;0.20;0.20;;;17.30;87.00;;;;;;5033541;28;20045;-65
2023/09/17 10:08:34;;;;;;;0.00;0.00;;;17.30;87.00;;;;;;5030829;28;20049;-66
2023/09/17 10:11:00;;;;;;;0.00;0.00;;;17.30;86.90;;;;;;5031994;28;20421;-65
2023/09/17 10:13:25;;;;;;;0.10;0.10;;;17.30;87.10;;;;;;5032392;28;20120;-65
2023/09/17 10:15:51;;;;;;;2.63;0.38;;;17.30;87.20;;;;;;5031302;28;20053;-66
2023/09/17 10:18:18;;;;;;;0.00;0.00;;;17.30;87.00;;;;;;5030358;28;20103;-65
2023/09/17 10:20:45;;;;;;;0.10;0.10;;;17.40;87.20;;;;;;5031338;28;20060;-65
2023/09/17 10:23:13;;;;;;;0.00;0.00;;;17.40;87.10;;;;;;5030073;28;20037;-65
2023/09/17 10:25:41;;;;;;;0.00;0.00;;;17.50;87.40;;;;;;5026853;28;20053;-65
2023/09/17 10:28:09;;;;;;;0.00;0.00;;;17.50;87.20;;;;;;5027315;28;20045;-65
2023/09/17 10:30:35;;;;;;;0.15;0.15;;;17.50;87.10;;;;;;5043395;28;20057;-65
2023/09/17 10:33:04;;;;;;;0.08;0.08;;;17.40;86.80;;;;;;5027918;28;20537;-64
2023/09/17 10:35:29;;;;;;;0.00;0.00;;;17.30;86.50;;;;;;5045260;28;20131;-65
2023/09/17 10:38:00;;;;;;;0.10;0.10;;;17.30;86.50;;;;;;5028425;28;20414;-64
2023/09/17 10:40:27;;;;;;;0.00;0.00;;;17.30;86.40;;;;;;5039253;28;20053;-65
2023/09/17 10:42:55;;;;;;;0.00;0.00;;;17.30;86.50;;;;;;5042962;28;20561;-65
2023/09/17 10:45:22;;;;;;;0.00;0.00;;;17.30;86.40;;;;;;5044316;28;20083;-65
2023/09/17 10:47:50;;;;;;;0.32;0.20;;;17.30;86.20;;;;;;5028188;28;20090;-65
2023/09/17 10:50:18;;;;;;;0.08;0.08;;;17.30;86.30;;;;;;5045243;28;20497;-65
2023/09/17 10:52:44;;;;;;;0.00;0.00;;;17.30;86.20;;;;;;5028198;28;20045;-65
2023/09/17 10:55:11;;;;;;;0.00;0.00;;;17.30;86.10;;;;;;5031805;28;20531;-65
2023/09/17 10:57:39;;;;;;;0.00;0.00;;;17.40;86.40;;;;;;5026257;28;20051;-65
2023/09/17 11:00:13;;;;;;;0.00;0.00;;;17.40;86.30;;;;;;5044882;28;20661;-65
2023/09/17 11:02:41;;;;;;;0.03;0.03;;;17.50;86.20;;;;;;5027671;28;20054;-65
2023/09/17 11:05:09;;;;;;;0.40;0.40;;;17.50;86.20;;;;;;5027486;28;20099;-65
2023/09/17 11:07:35;;;;;;;0.90;0.90;;;17.60;86.30;;;;;;5025937;28;20124;-66
2023/09/17 11:10:04;;;;;;;0.10;0.10;;;17.60;86.40;;;;;;5027044;28;20069;-65
2023/09/17 11:12:30;;;;;;;0.13;0.13;;;17.60;86.30;;;;;;5028705;28;20092;-66
2023/09/17 11:14:57;;;;;;;0.00;0.00;;;17.70;86.60;;;;;;5043451;28;20132;-65
2023/09/17 11:17:32;;;;;;;0.10;0.10;;;17.70;86.50;;;;;;5026104;28;20077;-65
2023/09/17 11:19:59;;;;;;;0.00;0.00;;;17.70;86.60;;;;;;5026328;28;20057;-66
2023/09/17 11:22:27;;;;;;;0.10;0.10;;;17.70;86.70;;;;;;5043859;28;20049;-65
2023/09/17 11:24:53;;;;;;;0.00;0.00;;;17.70;86.80;;;;;;5041782;28;20049;-65
2023/09/17 11:27:19;;;;;;;0.00;0.00;;;17.70;87.00;;;;;;5043946;28;20128;-66
2023/09/17 11:29:45;;;;;;;0.10;0.10;;;17.70;87.00;;;;;;5026362;28;20052;-66
2023/09/17 11:32:13;;;;;;;0.10;0.10;;;17.80;87.10;;;;;;5040783;28;20053;-66
2023/09/17 11:34:41;;;;;;;0.00;0.00;;;17.80;86.80;;;;;;5027369;28;20053;-66
2023/09/17 11:37:07;;;;;;;0.00;0.00;;;17.90;87.00;;;;;;5027033;28;20077;-65
2023/09/17 11:39:35;;;;;;;0.03;0.03;;;17.90;87.00;;;;;;5042810;28;20084;-65
2023/09/17 11:42:03;;;;;;;0.10;0.10;;;18.00;87.10;;;;;;5027389;28;20120;-66
2023/09/17 11:44:36;;;;;;;0.00;0.00;;;18.00;87.10;;;;;;5025864;28;20304;-66
2023/09/17 11:47:04;;;;;;;0.00;0.00;;;18.10;86.80;;;;;;5026148;28;20866;-66
2023/09/17 11:49:31;;;;;;;0.00;0.00;;;18.10;86.70;;;;;;5026548;28;20532;-66
2023/09/17 11:51:59;;;;;;;0.28;0.28;;;18.10;86.30;;;;;;5043072;28;20095;-66
2023/09/17 11:54:34;;;;;;;1.08;0.43;;;18.10;86.60;;;;;;5040039;28;20084;-66
2023/09/17 11:57:00;;;;;;;0.10;0.10;;;18.20;86.50;;;;;;5025920;28;20057;-66
2023/09/17 11:59:26;;;;;;;0.00;0.00;;;18.10;86.40;;;;;;5023529;28;20053;-66
2023/09/17 12:01:57;;;;;;;0.03;0.03;;;18.30;86.80;;;;;;5026349;28;20127;-66
2023/09/17 12:04:25;;;;;;;0.00;0.00;;;18.30;86.50;;;;;;5025879;28;20057;-66
2023/09/17 12:06:53;;;;;;;0.10;0.10;;;18.40;86.60;;;;;;5040500;28;20116;-66
2023/09/17 12:09:41;;;;;;;0.00;0.00;;;18.40;86.50;;;;;;5024488;28;20308;-66
2023/09/17 12:12:07;;;;;;;0.00;0.00;;;18.40;86.30;;;;;;5039633;28;20075;-66
2023/09/17 12:14:33;;;;;;;0.00;0.00;;;18.30;86.30;;;;;;5027414;28;20057;-66
2023/09/17 12:16:59;;;;;;;0.00;0.00;;;18.40;86.60;;;;;;5045822;28;20557;-66
2023/09/17 12:19:25;;;;;;;0.00;0.00;;;18.40;86.70;;;;;;5031026;28;20097;-66
2023/09/17 12:21:53;;;;;;;0.17;0.17;;;18.40;86.80;;;;;;5026317;28;20059;-65
2023/09/17 12:24:35;;;;;;;0.00;0.00;;;18.40;87.00;;;;;;5042910;28;20053;-66
2023/09/17 12:27:24;;;;;;;0.00;0.00;;;18.50;86.90;;;;;;5026584;28;20084;-66
2023/09/17 12:29:52;;;;;;;1.27;0.40;;;18.60;87.30;;;;;;5023908;28;20132;-66
2023/09/17 12:32:20;;;;;;;0.00;0.00;;;18.80;87.50;;;;;;5027261;28;20399;-67
2023/09/17 12:34:49;;;;;;;0.00;0.00;;;19.10;88.00;;;;;;5026656;28;20065;-67
2023/09/17 12:37:17;;;;;;;0.15;0.15;;;19.20;87.30;;;;;;5044038;28;20147;-67
2023/09/17 12:39:43;;;;;;;0.00;0.00;;;19.40;87.00;;;;;;5024235;28;20053;-67
2023/09/17 12:42:09;;;;;;;0.75;0.75;;;19.50;86.50;;;;;;5042996;28;20457;-67
2023/09/17 12:44:35;;;;;;;1.50;1.40;;;19.60;86.20;;;;;;5041669;28;20053;-67
2023/09/17 12:47:03;;;;;;;0.00;0.00;;;19.60;85.70;;;;;;5026202;28;20058;-67